createdAt,value
2019-01-02T00:00:54.487Z,5.09
2019-01-02T00:01:55.070Z,5.08
2019-01-02T00:02:54.456Z,5.04
2019-01-02T00:03:54.485Z,5.03
2019-01-02T00:04:56.753Z,5.03
2019-01-02T00:05:54.455Z,5.04
2019-01-02T00:06:54.386Z,5.02
2019-01-02T00:07:56.797Z,5
2019-01-02T00:08:54.414Z,4.98
2019-01-02T00:09:54.381Z,4.94
2019-01-02T00:10:54.656Z,4.91
2019-01-02T00:11:54.508Z,4.92
2019-01-02T00:12:56.795Z,4.91
2019-01-02T00:13:54.422Z,4.9
2019-01-02T00:14:54.588Z,4.83
2019-01-02T00:15:56.766Z,4.84
2019-01-02T00:16:54.385Z,4.85
2019-01-02T00:17:54.759Z,4.87
2019-01-02T00:18:54.393Z,4.86
2019-01-02T00:19:54.773Z,4.84
2019-01-02T00:20:56.898Z,4.85
2019-01-02T00:21:54.907Z,4.85
2019-01-02T00:22:54.431Z,4.84
2019-01-02T00:23:56.256Z,4.84
2019-01-02T00:24:54.411Z,4.84
2019-01-02T00:25:54.389Z,4.87
2019-01-02T00:26:54.412Z,4.89
2019-01-02T00:27:54.344Z,4.9
2019-01-02T00:28:56.768Z,4.9
2019-01-02T00:29:54.417Z,4.9
2019-01-02T00:30:54.528Z,4.9
2019-01-02T00:31:56.239Z,4.91
2019-01-02T00:32:54.624Z,4.92
2019-01-02T00:33:55.924Z,4.95
2019-01-02T00:34:54.628Z,4.97
2019-01-02T00:35:54.544Z,4.98
2019-01-02T00:36:56.825Z,4.99
2019-01-02T00:37:54.544Z,4.98
2019-01-02T00:38:54.360Z,5.03
2019-01-02T00:39:54.328Z,5.05
2019-01-02T00:40:54.512Z,5.03
2019-01-02T00:41:56.692Z,5.02
2019-01-02T00:42:54.323Z,5.02
2019-01-02T00:43:54.338Z,4.97
2019-01-02T00:44:56.558Z,4.96
2019-01-02T00:45:54.373Z,4.94
2019-01-02T00:46:56.506Z,4.91
2019-01-02T00:47:55.165Z,4.85
2019-01-02T00:48:54.433Z,4.86
2019-01-02T00:49:56.756Z,4.85
2019-01-02T00:50:55.185Z,4.83
2019-01-02T00:51:54.524Z,4.81
2019-01-02T00:52:54.688Z,4.83
2019-01-02T00:53:54.456Z,4.82
2019-01-02T00:54:56.902Z,4.85
2019-01-02T00:55:54.326Z,4.8
2019-01-02T00:56:54.693Z,4.78
2019-01-02T00:57:54.348Z,4.8
2019-01-02T00:58:54.489Z,4.81
2019-01-02T00:59:56.709Z,4.78
2019-01-02T01:00:54.361Z,4.77
2019-01-02T01:01:57.363Z,4.77
2019-01-02T01:02:54.348Z,4.78
2019-01-02T01:03:54.319Z,4.77
2019-01-02T01:04:56.079Z,4.78
2019-01-02T01:05:54.415Z,4.77
2019-01-02T01:06:56.711Z,4.78
2019-01-02T01:07:54.324Z,4.78
2019-01-02T01:08:54.425Z,4.76
2019-01-02T01:09:56.388Z,4.76
2019-01-02T01:10:54.352Z,4.76
2019-01-02T01:11:56.676Z,4.75
2019-01-02T01:12:54.311Z,4.73
2019-01-02T01:13:54.333Z,4.75
2019-01-02T01:14:56.184Z,4.76
2019-01-02T01:15:54.290Z,4.74
2019-01-02T01:16:56.086Z,4.74
2019-01-02T01:17:54.414Z,4.71
2019-01-02T01:18:54.347Z,4.71
2019-01-02T01:19:56.938Z,4.71
2019-01-02T01:20:54.362Z,4.7
2019-01-02T01:21:54.325Z,4.7
2019-01-02T01:22:56.458Z,4.71
2019-01-02T01:23:54.310Z,4.69
2019-01-02T01:24:54.300Z,4.71
2019-01-02T01:25:56.071Z,4.7
2019-01-02T01:26:54.281Z,4.71
2019-01-02T01:27:54.292Z,4.69
2019-01-02T01:28:54.422Z,4.71
2019-01-02T01:29:54.406Z,4.72
2019-01-02T01:30:57.021Z,4.71
2019-01-02T01:31:54.742Z,4.72
2019-01-02T01:32:54.354Z,4.73
2019-01-02T01:33:56.348Z,4.71
2019-01-02T01:34:54.357Z,4.71
2019-01-02T01:35:54.342Z,4.72
2019-01-02T01:36:56.770Z,4.71
2019-01-02T01:37:55.120Z,4.71
2019-01-02T01:38:54.482Z,4.69
2019-01-02T01:39:56.870Z,4.66
2019-01-02T01:40:54.601Z,4.69
2019-01-02T01:41:54.407Z,4.69
2019-01-02T01:42:56.355Z,4.66
2019-01-02T01:43:54.372Z,4.7
2019-01-02T01:44:54.353Z,4.73
2019-01-02T01:45:55.111Z,4.73
2019-01-02T01:46:54.646Z,4.75
2019-01-02T01:47:54.314Z,4.78
2019-01-02T01:48:54.265Z,4.78
2019-01-02T01:49:54.255Z,4.79
2019-01-02T01:50:56.455Z,4.75
2019-01-02T01:51:54.385Z,4.79
2019-01-02T01:52:54.573Z,4.78
2019-01-02T01:53:56.904Z,4.74
2019-01-02T01:54:54.302Z,4.78
2019-01-02T01:55:54.511Z,4.82
2019-01-02T01:56:56.785Z,4.83
2019-01-02T01:57:54.754Z,4.81
2019-01-02T01:58:54.290Z,4.8
2019-01-02T01:59:56.678Z,4.8
2019-01-02T02:00:54.571Z,4.84
2019-01-02T02:01:54.835Z,4.86
2019-01-02T02:02:56.877Z,4.85
2019-01-02T02:03:54.970Z,4.85
2019-01-02T02:04:54.515Z,4.84
2019-01-02T02:05:56.706Z,4.81
2019-01-02T02:06:54.338Z,4.81
2019-01-02T02:07:54.379Z,4.77
2019-01-02T02:08:54.617Z,4.75
2019-01-02T02:09:54.379Z,4.7
2019-01-02T02:10:54.720Z,4.68
2019-01-02T02:11:54.494Z,4.7
2019-01-02T02:12:54.978Z,4.66
2019-01-02T02:13:56.398Z,4.64
2019-01-02T02:14:54.309Z,4.64
2019-01-02T02:15:54.534Z,4.64
2019-01-02T02:16:56.563Z,4.63
2019-01-02T02:17:54.469Z,4.65
2019-01-02T02:18:54.201Z,4.62
2019-01-02T02:19:56.397Z,4.63
2019-01-02T02:20:54.678Z,4.59
2019-01-02T02:21:54.450Z,4.58
2019-01-02T02:22:56.624Z,4.57
2019-01-02T02:23:54.605Z,4.57
2019-01-02T02:24:54.299Z,4.58
2019-01-02T02:25:54.279Z,4.57
2019-01-02T02:26:54.312Z,4.57
2019-01-02T02:27:55.775Z,4.53
2019-01-02T02:28:54.225Z,4.51
2019-01-02T02:29:54.560Z,4.51
2019-01-02T02:30:56.877Z,4.49
2019-01-02T02:31:54.203Z,4.48
2019-01-02T02:32:54.569Z,4.48
2019-01-02T02:33:56.635Z,4.48
2019-01-02T02:34:54.312Z,4.46
2019-01-02T02:35:56.676Z,4.44
2019-01-02T02:36:56.460Z,4.45
2019-01-02T02:37:54.448Z,4.46
2019-01-02T02:38:56.606Z,4.44
2019-01-02T02:39:54.232Z,4.41
2019-01-02T02:40:54.414Z,4.4
2019-01-02T02:41:56.508Z,4.35
2019-01-02T02:42:57.180Z,4.33
2019-01-02T02:43:56.266Z,4.29
2019-01-02T02:44:56.459Z,4.29
2019-01-02T02:45:57.120Z,4.28
2019-01-02T02:46:54.221Z,4.25
2019-01-02T02:47:56.371Z,4.27
2019-01-02T02:48:56.575Z,4.27
2019-01-02T02:49:54.265Z,4.24
2019-01-02T02:50:56.430Z,4.21
2019-01-02T02:51:54.239Z,4.22
2019-01-02T02:52:54.407Z,4.2
2019-01-02T02:53:56.267Z,4.2
2019-01-02T02:54:54.191Z,4.19
2019-01-02T02:55:56.146Z,4.18
2019-01-02T02:56:56.181Z,4.15
2019-01-02T02:57:54.321Z,4.15
2019-01-02T02:58:55.972Z,4.12
2019-01-02T02:59:54.263Z,4.13
2019-01-02T03:00:56.074Z,4.14
2019-01-02T03:01:56.475Z,4.13
2019-01-02T03:02:54.353Z,4.11
2019-01-02T03:03:56.423Z,4.11
2019-01-02T03:04:56.987Z,4.12
2019-01-02T03:05:54.272Z,4.11
2019-01-02T03:06:57.723Z,4.1
2019-01-02T03:07:56.692Z,4.09
2019-01-02T03:08:54.503Z,4.09
2019-01-02T03:09:56.456Z,4.02
2019-01-02T03:10:56.639Z,4.07
2019-01-02T03:11:54.144Z,4.02
2019-01-02T03:12:56.151Z,3.98
2019-01-02T03:13:56.268Z,3.96
2019-01-02T03:14:54.526Z,3.94
2019-01-02T03:15:56.616Z,3.92
2019-01-02T03:16:56.326Z,3.91
2019-01-02T03:17:54.231Z,3.91
2019-01-02T03:18:56.696Z,3.92
2019-01-02T03:19:56.315Z,3.95
2019-01-02T03:20:54.408Z,3.95
2019-01-02T03:21:56.332Z,3.95
2019-01-02T03:22:57.030Z,3.87
2019-01-02T03:23:54.434Z,3.89
2019-01-02T03:24:56.818Z,3.89
2019-01-02T03:25:56.405Z,3.85
2019-01-02T03:26:54.138Z,3.86
2019-01-02T03:27:56.287Z,3.83
2019-01-02T03:28:56.479Z,3.83
2019-01-02T03:29:54.123Z,3.81
2019-01-02T03:30:56.187Z,3.8
2019-01-02T03:31:56.648Z,3.83
2019-01-02T03:32:56.542Z,3.79
2019-01-02T03:33:54.159Z,3.78
2019-01-02T03:34:54.123Z,3.77
2019-01-02T03:35:54.312Z,3.77
2019-01-02T03:36:54.074Z,3.78
2019-01-02T03:37:54.291Z,3.77
2019-01-02T03:38:54.112Z,3.75
2019-01-02T03:39:54.194Z,3.74
2019-01-02T03:40:54.151Z,3.75
2019-01-02T03:41:54.186Z,3.73
2019-01-02T03:42:54.077Z,3.73
2019-01-02T03:43:54.242Z,3.73
2019-01-02T03:44:54.062Z,3.73
2019-01-02T03:45:54.271Z,3.72
2019-01-02T03:46:54.180Z,3.72
2019-01-02T03:47:54.264Z,3.7
2019-01-02T03:48:54.488Z,3.71
2019-01-02T03:49:54.469Z,3.69
2019-01-02T03:50:54.305Z,3.7
2019-01-02T03:51:54.448Z,3.63
2019-01-02T03:52:54.808Z,3.61
2019-01-02T03:53:54.151Z,3.63
2019-01-02T03:54:54.539Z,3.62
2019-01-02T03:55:54.871Z,3.61
2019-01-02T03:56:54.034Z,3.61
2019-01-02T03:57:54.178Z,3.62
2019-01-02T03:58:54.641Z,3.6
2019-01-02T03:59:54.883Z,3.55
2019-01-02T04:00:54.072Z,3.55
2019-01-02T04:01:54.175Z,3.51
2019-01-02T04:02:54.120Z,3.55
2019-01-02T04:03:54.180Z,3.54
2019-01-02T04:04:54.009Z,3.55
2019-01-02T04:05:54.187Z,3.53
2019-01-02T04:06:54.107Z,3.51
2019-01-02T04:07:54.254Z,3.51
2019-01-02T04:08:54.864Z,3.51
2019-01-02T04:09:54.196Z,3.5
2019-01-02T04:10:54.169Z,3.49
2019-01-02T04:11:54.062Z,3.49
2019-01-02T04:12:54.413Z,3.49
2019-01-02T04:13:54.224Z,3.49
2019-01-02T04:14:54.390Z,3.5
2019-01-02T04:15:54.190Z,3.5
2019-01-02T04:16:54.027Z,3.52
2019-01-02T04:17:54.378Z,3.54
2019-01-02T04:18:54.250Z,3.53
2019-01-02T04:19:54.046Z,3.53
2019-01-02T04:20:54.366Z,3.5
2019-01-02T04:21:54.270Z,3.49
2019-01-02T04:22:54.121Z,3.45
2019-01-02T04:23:54.279Z,3.47
2019-01-02T04:24:54.463Z,3.45
2019-01-02T04:25:54.362Z,3.46
2019-01-02T04:26:54.231Z,3.44
2019-01-02T04:27:54.398Z,3.47
2019-01-02T04:28:54.147Z,3.44
2019-01-02T04:29:54.131Z,3.44
2019-01-02T04:30:53.994Z,3.43
2019-01-02T04:31:54.012Z,3.39
2019-01-02T04:32:54.038Z,3.41
2019-01-02T04:33:54.182Z,3.38
2019-01-02T04:34:54.122Z,3.42
2019-01-02T04:35:54.126Z,3.42
2019-01-02T04:36:53.978Z,3.42
2019-01-02T04:37:54.183Z,3.41
2019-01-02T04:38:54.151Z,3.43
2019-01-02T04:39:54.238Z,3.44
2019-01-02T04:40:54.331Z,3.43
2019-01-02T04:41:53.999Z,3.45
2019-01-02T04:42:53.952Z,3.42
2019-01-02T04:43:53.983Z,3.41
2019-01-02T04:44:54.123Z,3.41
2019-01-02T04:45:54.063Z,3.37
2019-01-02T04:46:54.145Z,3.39
2019-01-02T04:47:54.546Z,3.37
2019-01-02T04:48:53.959Z,3.36
2019-01-02T04:49:54.223Z,3.41
2019-01-02T04:50:54.339Z,3.4
2019-01-02T04:51:54.201Z,3.42
2019-01-02T04:52:54.451Z,3.37
2019-01-02T04:53:54.208Z,3.39
2019-01-02T04:54:54.176Z,3.38
2019-01-02T04:55:54.004Z,3.37
2019-01-02T04:56:54.071Z,3.37
2019-01-02T04:57:54.288Z,3.36
2019-01-02T04:58:53.984Z,3.36
2019-01-02T04:59:54.084Z,3.34
2019-01-02T05:00:54.275Z,3.35
2019-01-02T05:01:54.352Z,3.33
2019-01-02T05:02:54.295Z,3.32
2019-01-02T05:03:54.331Z,3.3
2019-01-02T05:04:54.612Z,3.31
2019-01-02T05:05:54.296Z,3.31
2019-01-02T05:06:54.560Z,3.31
2019-01-02T05:07:54.597Z,3.31
2019-01-02T05:08:54.676Z,3.31
2019-01-02T05:09:54.378Z,3.33
2019-01-02T05:10:54.110Z,3.31
2019-01-02T05:11:54.342Z,3.31
2019-01-02T05:12:54.624Z,3.3
2019-01-02T05:13:54.778Z,3.3
2019-01-02T05:14:54.328Z,3.28
2019-01-02T05:15:54.308Z,3.26
2019-01-02T05:16:54.202Z,3.29
2019-01-02T05:17:54.397Z,3.25
2019-01-02T05:18:53.979Z,3.23
2019-01-02T05:19:54.177Z,3.23
2019-01-02T05:20:53.974Z,3.19
2019-01-02T05:21:54.762Z,3.18
2019-01-02T05:22:54.178Z,3.17
2019-01-02T05:23:53.915Z,3.17
2019-01-02T05:24:54.364Z,3.17
2019-01-02T05:25:53.946Z,3.18
2019-01-02T05:26:54.002Z,3.17
2019-01-02T05:27:54.317Z,3.17
2019-01-02T05:28:54.472Z,3.18
2019-01-02T05:29:54.000Z,3.18
2019-01-02T05:30:53.926Z,3.2
2019-01-02T05:31:54.410Z,3.18
2019-01-02T05:32:53.987Z,3.18
2019-01-02T05:33:54.748Z,3.16
2019-01-02T05:34:54.178Z,3.15
2019-01-02T05:35:53.930Z,3.13
2019-01-02T05:36:54.027Z,3.13
2019-01-02T05:37:54.388Z,3.16
2019-01-02T05:38:54.056Z,3.12
2019-01-02T05:39:53.971Z,3.15
2019-01-02T05:40:54.752Z,3.14
2019-01-02T05:41:53.950Z,3.15
2019-01-02T05:42:54.456Z,3.14
2019-01-02T05:43:53.869Z,3.16
2019-01-02T05:44:54.228Z,3.18
2019-01-02T05:45:54.236Z,3.18
2019-01-02T05:46:54.309Z,3.19
2019-01-02T05:47:54.328Z,3.23
2019-01-02T05:48:53.968Z,3.23
2019-01-02T05:49:53.942Z,3.25
2019-01-02T05:50:54.215Z,3.26
2019-01-02T05:51:53.900Z,3.25
2019-01-02T05:52:53.973Z,3.25
2019-01-02T05:53:54.172Z,3.24
2019-01-02T05:54:54.376Z,3.25
2019-01-02T05:55:54.592Z,3.27
2019-01-02T05:56:54.152Z,3.26
2019-01-02T05:57:54.475Z,3.26
2019-01-02T05:58:54.571Z,3.28
2019-01-02T05:59:53.926Z,3.26
2019-01-02T06:00:54.132Z,3.3
2019-01-02T06:01:54.726Z,3.31
2019-01-02T06:02:54.211Z,3.33
2019-01-02T06:03:53.887Z,3.32
2019-01-02T06:04:54.173Z,3.32
2019-01-02T06:05:54.093Z,3.32
2019-01-02T06:06:54.085Z,3.32
2019-01-02T06:07:54.041Z,3.37
2019-01-02T06:08:53.839Z,3.37
2019-01-02T06:09:54.039Z,3.37
2019-01-02T06:10:53.920Z,3.35
2019-01-02T06:11:53.861Z,3.34
2019-01-02T06:12:53.882Z,3.35
2019-01-02T06:13:53.889Z,3.37
2019-01-02T06:14:53.967Z,3.4
2019-01-02T06:15:53.843Z,3.4
2019-01-02T06:16:53.884Z,3.39
2019-01-02T06:17:54.146Z,3.38
2019-01-02T06:18:53.841Z,3.39
2019-01-02T06:19:53.869Z,3.44
2019-01-02T06:20:53.985Z,3.44
2019-01-02T06:21:54.002Z,3.48
2019-01-02T06:22:54.247Z,3.46
2019-01-02T06:23:53.858Z,3.47
2019-01-02T06:24:53.871Z,3.49
2019-01-02T06:25:53.858Z,3.48
2019-01-02T06:26:53.983Z,3.48
2019-01-02T06:27:53.841Z,3.47
2019-01-02T06:28:53.832Z,3.47
2019-01-02T06:29:54.525Z,3.48
2019-01-02T06:30:54.680Z,3.45
2019-01-02T06:31:53.841Z,3.49
2019-01-02T06:32:53.857Z,3.5
2019-01-02T06:33:53.847Z,3.49
2019-01-02T06:34:53.907Z,3.48
2019-01-02T06:35:53.880Z,3.47
2019-01-02T06:36:53.929Z,3.46
2019-01-02T06:37:54.032Z,3.46
2019-01-02T06:38:53.937Z,3.44
2019-01-02T06:39:53.944Z,3.43
2019-01-02T06:40:53.965Z,3.43
2019-01-02T06:41:54.658Z,3.47
2019-01-02T06:42:54.031Z,3.47
2019-01-02T06:43:54.107Z,3.43
2019-01-02T06:44:54.150Z,3.43
2019-01-02T06:45:53.971Z,3.42
2019-01-02T06:46:53.907Z,3.46
2019-01-02T06:47:55.758Z,3.47
2019-01-02T06:48:53.925Z,3.44
2019-01-02T06:49:53.900Z,3.44
2019-01-02T06:50:53.849Z,3.42
2019-01-02T06:51:54.141Z,3.42
2019-01-02T06:52:54.096Z,3.46
2019-01-02T06:53:53.854Z,3.43
2019-01-02T06:54:53.788Z,3.47
2019-01-02T06:55:53.826Z,3.42
2019-01-02T06:56:54.246Z,3.44
2019-01-02T06:57:54.156Z,3.44
2019-01-02T06:58:54.040Z,3.46
2019-01-02T06:59:53.799Z,3.44
2019-01-02T07:00:53.876Z,3.43
2019-01-02T07:01:54.521Z,3.42
2019-01-02T07:02:53.965Z,3.43
2019-01-02T07:03:54.295Z,3.44
2019-01-02T07:04:54.637Z,3.44
2019-01-02T07:05:54.151Z,3.44
2019-01-02T07:06:53.783Z,3.44
2019-01-02T07:07:53.885Z,3.47
2019-01-02T07:08:53.969Z,3.45
2019-01-02T07:09:54.161Z,3.45
2019-01-02T07:10:53.842Z,3.46
2019-01-02T07:11:54.142Z,3.49
2019-01-02T07:12:54.664Z,3.47
2019-01-02T07:13:53.780Z,3.48
2019-01-02T07:14:53.760Z,3.46
2019-01-02T07:15:54.276Z,3.49
2019-01-02T07:16:54.243Z,3.49
2019-01-02T07:17:54.486Z,3.49
2019-01-02T07:18:54.314Z,3.47
2019-01-02T07:19:53.803Z,3.49
2019-01-02T07:20:54.202Z,3.5
2019-01-02T07:21:53.993Z,3.53
2019-01-02T07:22:53.843Z,3.5
2019-01-02T07:23:53.961Z,3.5
2019-01-02T07:24:54.278Z,3.5
2019-01-02T07:25:54.622Z,3.52
2019-01-02T07:26:54.229Z,3.53
2019-01-02T07:27:53.813Z,3.5
2019-01-02T07:28:53.992Z,3.5
2019-01-02T07:29:53.849Z,3.5
2019-01-02T07:30:53.951Z,3.53
2019-01-02T07:31:54.008Z,3.51
2019-01-02T07:32:54.629Z,3.52
2019-01-02T07:33:54.267Z,3.53
2019-01-02T07:34:53.839Z,3.53
2019-01-02T07:35:54.211Z,3.51
2019-01-02T07:36:54.020Z,3.53
2019-01-02T07:37:54.057Z,3.51
2019-01-02T07:38:53.862Z,3.55
2019-01-02T07:39:53.746Z,3.51
2019-01-02T07:40:53.849Z,3.53
2019-01-02T07:41:53.870Z,3.5
2019-01-02T07:42:54.157Z,3.54
2019-01-02T07:43:53.751Z,3.52
2019-01-02T07:44:53.939Z,3.52
2019-01-02T07:45:53.998Z,3.53
2019-01-02T07:46:54.525Z,3.51
2019-01-02T07:47:54.337Z,3.51
2019-01-02T07:48:53.870Z,3.51
2019-01-02T07:49:53.879Z,3.54
2019-01-02T07:50:53.710Z,3.54
2019-01-02T07:51:53.931Z,3.55
2019-01-02T07:52:53.790Z,3.52
2019-01-02T07:53:53.626Z,3.54
2019-01-02T07:54:53.805Z,3.54
2019-01-02T07:55:53.710Z,3.55
2019-01-02T07:56:53.817Z,3.56
2019-01-02T07:57:53.706Z,3.55
2019-01-02T07:58:53.782Z,3.56
2019-01-02T07:59:53.794Z,3.56
2019-01-02T08:00:54.358Z,3.56
2019-01-02T08:01:53.787Z,3.58
2019-01-02T08:02:53.791Z,3.55
2019-01-02T08:03:53.753Z,3.56
2019-01-02T08:04:53.909Z,3.58
2019-01-02T08:05:53.782Z,3.6
2019-01-02T08:06:53.719Z,3.6
2019-01-02T08:07:53.855Z,3.6
2019-01-02T08:08:53.766Z,3.63
2019-01-02T08:09:54.252Z,3.61
2019-01-02T08:10:54.007Z,3.61
2019-01-02T08:11:54.275Z,3.61
2019-01-02T08:12:53.848Z,3.61
2019-01-02T08:13:53.946Z,3.6
2019-01-02T08:14:53.843Z,3.6
2019-01-02T08:15:54.209Z,3.61
2019-01-02T08:16:54.201Z,3.62
2019-01-02T08:17:54.233Z,3.62
2019-01-02T08:18:53.960Z,3.62
2019-01-02T08:19:54.563Z,3.64
2019-01-02T08:20:54.016Z,3.66
2019-01-02T08:21:53.689Z,3.66
2019-01-02T08:22:54.431Z,3.66
2019-01-02T08:23:54.510Z,3.66
2019-01-02T08:24:54.586Z,3.66
2019-01-02T08:25:53.936Z,3.66
2019-01-02T08:26:54.060Z,3.66
2019-01-02T08:27:54.208Z,3.67
2019-01-02T08:28:54.541Z,3.67
2019-01-02T08:29:54.074Z,3.7
2019-01-02T08:30:54.188Z,3.69
2019-01-02T08:31:53.782Z,3.7
2019-01-02T08:32:53.817Z,3.7
2019-01-02T08:33:53.756Z,3.72
2019-01-02T08:34:53.763Z,3.72
2019-01-02T08:35:54.079Z,3.73
2019-01-02T08:36:53.859Z,3.72
2019-01-02T08:37:54.501Z,3.73
2019-01-02T08:38:53.726Z,3.74
2019-01-02T08:39:53.974Z,3.74
2019-01-02T08:40:54.013Z,3.74
2019-01-02T08:41:54.211Z,3.72
2019-01-02T08:42:54.166Z,3.74
2019-01-02T08:43:54.397Z,3.73
2019-01-02T08:44:53.903Z,3.73
2019-01-02T08:45:54.535Z,3.74
2019-01-02T08:46:53.667Z,3.75
2019-01-02T08:47:53.678Z,3.75
2019-01-02T08:48:54.249Z,3.76
2019-01-02T08:49:54.250Z,3.78
2019-01-02T08:50:53.752Z,3.81
2019-01-02T08:51:53.691Z,3.78
2019-01-02T08:52:53.657Z,3.81
2019-01-02T08:53:53.705Z,3.78
2019-01-02T08:54:54.045Z,3.81
2019-01-02T08:55:53.662Z,3.81
2019-01-02T08:56:53.681Z,3.81
2019-01-02T08:57:54.083Z,3.83
2019-01-02T08:58:53.768Z,3.81
2019-01-02T08:59:53.640Z,3.83
2019-01-02T09:00:54.165Z,3.83
2019-01-02T09:01:53.656Z,3.83
2019-01-02T09:02:53.658Z,3.83
2019-01-02T09:03:53.834Z,3.82
2019-01-02T09:04:54.083Z,3.82
2019-01-02T09:05:54.230Z,3.81
2019-01-02T09:06:53.845Z,3.78
2019-01-02T09:07:53.996Z,3.79
2019-01-02T09:08:53.636Z,3.8
2019-01-02T09:09:53.915Z,3.77
2019-01-02T09:10:53.633Z,3.75
2019-01-02T09:11:53.758Z,3.74
2019-01-02T09:12:54.039Z,3.75
2019-01-02T09:13:53.636Z,3.75
2019-01-02T09:14:54.072Z,3.77
2019-01-02T09:15:53.819Z,3.75
2019-01-02T09:16:54.076Z,3.74
2019-01-02T09:17:53.619Z,3.75
2019-01-02T09:18:54.085Z,3.75
2019-01-02T09:19:53.985Z,3.73
2019-01-02T09:20:53.874Z,3.76
2019-01-02T09:21:53.831Z,3.75
2019-01-02T09:22:54.440Z,3.74
2019-01-02T09:23:53.815Z,3.74
2019-01-02T09:24:53.842Z,3.75
2019-01-02T09:25:54.030Z,3.74
2019-01-02T09:26:53.749Z,3.75
2019-01-02T09:27:53.831Z,3.75
2019-01-02T09:28:53.940Z,3.75
2019-01-02T09:29:53.904Z,3.75
2019-01-02T09:30:53.766Z,3.74
2019-01-02T09:31:53.577Z,3.71
2019-01-02T09:32:53.729Z,3.73
2019-01-02T09:33:53.708Z,3.73
2019-01-02T09:34:53.724Z,3.73
2019-01-02T09:35:55.986Z,3.74
2019-01-02T09:36:53.656Z,3.75
2019-01-02T09:37:54.672Z,3.75
2019-01-02T09:38:53.580Z,3.75
2019-01-02T09:39:53.762Z,3.75
2019-01-02T09:40:53.820Z,3.75
2019-01-02T09:41:53.583Z,3.76
2019-01-02T09:42:53.679Z,3.74
2019-01-02T09:43:53.786Z,3.75
2019-01-02T09:44:53.636Z,3.75
2019-01-02T09:45:53.592Z,3.75
2019-01-02T09:46:54.256Z,3.78
2019-01-02T09:47:53.822Z,3.79
2019-01-02T09:48:53.651Z,3.78
2019-01-02T09:49:53.600Z,3.8
2019-01-02T09:50:53.714Z,3.79
2019-01-02T09:51:54.181Z,3.82
2019-01-02T09:52:53.612Z,3.83
2019-01-02T09:53:53.710Z,3.84
2019-01-02T09:54:53.747Z,3.83
2019-01-02T09:55:53.633Z,3.84
2019-01-02T09:56:54.098Z,3.85
2019-01-02T09:57:53.750Z,3.87
2019-01-02T09:58:53.607Z,3.88
2019-01-02T09:59:53.696Z,3.89
2019-01-02T10:00:53.780Z,3.89
2019-01-02T10:01:54.270Z,3.92
2019-01-02T10:02:53.745Z,3.93
2019-01-02T10:03:54.661Z,3.93
2019-01-02T10:04:54.126Z,3.91
2019-01-02T10:05:53.874Z,3.97
2019-01-02T10:06:53.842Z,4.08
2019-01-02T10:07:53.755Z,4.22
2019-01-02T10:08:53.976Z,4.26
2019-01-02T10:09:53.942Z,4.32
2019-01-02T10:10:53.904Z,4.35
2019-01-02T10:11:53.611Z,4.39
2019-01-02T10:12:53.821Z,4.42
2019-01-02T10:13:53.577Z,4.44
2019-01-02T10:14:53.853Z,4.49
2019-01-02T10:15:53.853Z,4.51
2019-01-02T10:16:53.755Z,4.55
2019-01-02T10:17:54.805Z,4.54
2019-01-02T10:18:54.069Z,4.6
2019-01-02T10:19:53.983Z,4.6
2019-01-02T10:20:53.623Z,4.61
2019-01-02T10:21:53.704Z,4.62
2019-01-02T10:22:53.729Z,4.64
2019-01-02T10:23:53.634Z,4.63
2019-01-02T10:24:53.744Z,4.65
2019-01-02T10:25:53.940Z,4.65
2019-01-02T10:26:53.919Z,4.68
2019-01-02T10:27:54.377Z,4.72
2019-01-02T10:28:53.581Z,4.74
2019-01-02T10:29:53.749Z,4.79
2019-01-02T10:30:53.776Z,4.79
2019-01-02T10:31:53.658Z,4.84
2019-01-02T10:32:53.714Z,4.84
2019-01-02T10:33:53.780Z,4.85
2019-01-02T10:34:54.347Z,4.86
2019-01-02T10:35:53.769Z,4.87
2019-01-02T10:36:53.576Z,4.86
2019-01-02T10:37:55.881Z,4.93
2019-01-02T10:38:53.963Z,4.91
2019-01-02T10:39:54.106Z,4.95
2019-01-02T10:40:53.652Z,4.93
2019-01-02T10:41:53.895Z,4.97
2019-01-02T10:42:53.767Z,4.96
2019-01-02T10:43:53.634Z,4.98
2019-01-02T10:44:53.598Z,5.02
2019-01-02T10:45:53.517Z,4.97
2019-01-02T10:46:53.677Z,5.01
2019-01-02T10:47:53.835Z,5.04
2019-01-02T10:48:53.786Z,5.06
2019-01-02T10:49:53.975Z,5.06
2019-01-02T10:50:53.655Z,5.1
2019-01-02T10:51:53.922Z,5.11
2019-01-02T10:52:53.707Z,5.1
2019-01-02T10:53:54.315Z,5.1
2019-01-02T10:54:53.794Z,5.13
2019-01-02T10:55:53.647Z,5.11
2019-01-02T10:56:56.133Z,5.12
2019-01-02T10:57:53.713Z,5.11
2019-01-02T10:58:54.326Z,5.11
2019-01-02T10:59:53.600Z,5.14
2019-01-02T11:00:53.695Z,5.17
2019-01-02T11:01:54.331Z,5.21
2019-01-02T11:02:53.748Z,5.24
2019-01-02T11:03:53.771Z,5.31
2019-01-02T11:04:53.631Z,5.35
2019-01-02T11:05:53.715Z,5.37
2019-01-02T11:06:53.485Z,5.41
2019-01-02T11:07:53.728Z,5.5
2019-01-02T11:08:53.634Z,5.52
2019-01-02T11:09:53.935Z,5.56
2019-01-02T11:10:53.520Z,5.57
2019-01-02T11:11:53.458Z,5.58
2019-01-02T11:12:53.580Z,5.64
2019-01-02T11:13:53.533Z,5.7
2019-01-02T11:14:53.527Z,5.76
2019-01-02T11:15:53.584Z,5.77
2019-01-02T11:16:53.524Z,5.81
2019-01-02T11:17:53.515Z,5.83
2019-01-02T11:18:54.224Z,5.82
2019-01-02T11:19:53.782Z,5.82
2019-01-02T11:20:53.738Z,5.8
2019-01-02T11:21:53.595Z,5.77
2019-01-02T11:22:53.494Z,5.77
2019-01-02T11:23:53.405Z,5.78
2019-01-02T11:24:53.630Z,5.78
2019-01-02T11:25:53.568Z,5.78
2019-01-02T11:26:53.491Z,5.82
2019-01-02T11:27:53.563Z,5.81
2019-01-02T11:28:53.540Z,5.82
2019-01-02T11:29:53.617Z,5.78
2019-01-02T11:30:53.452Z,5.77
2019-01-02T11:31:53.603Z,5.76
2019-01-02T11:32:53.523Z,5.76
2019-01-02T11:33:53.735Z,5.76
2019-01-02T11:34:53.675Z,5.78
2019-01-02T11:35:53.471Z,5.78
2019-01-02T11:36:53.678Z,5.75
2019-01-02T11:37:53.527Z,5.73
2019-01-02T11:38:53.673Z,5.73
2019-01-02T11:39:53.739Z,5.72
2019-01-02T11:40:53.629Z,5.71
2019-01-02T11:41:54.760Z,5.68
2019-01-02T11:42:53.658Z,5.7
2019-01-02T11:43:53.820Z,5.66
2019-01-02T11:44:53.559Z,5.62
2019-01-02T11:45:53.550Z,5.64
2019-01-02T11:46:53.724Z,5.64
2019-01-02T11:47:53.525Z,5.6
2019-01-02T11:48:53.530Z,5.58
2019-01-02T11:49:53.515Z,5.57
2019-01-02T11:50:54.231Z,5.53
2019-01-02T11:51:53.510Z,5.52
2019-01-02T11:52:53.581Z,5.49
2019-01-02T11:53:53.515Z,5.4
2019-01-02T11:54:54.632Z,5.43
2019-01-02T11:55:53.442Z,5.4
2019-01-02T11:56:53.850Z,5.39
2019-01-02T11:57:53.558Z,5.34
2019-01-02T11:58:53.519Z,5.26
2019-01-02T11:59:53.617Z,5.25
2019-01-02T12:00:53.758Z,5.21
2019-01-02T12:01:53.439Z,5.19
2019-01-02T12:02:53.798Z,5.19
2019-01-02T12:03:53.842Z,5.16
2019-01-02T12:04:53.533Z,5.14
2019-01-02T12:05:53.447Z,5.12
2019-01-02T12:06:53.589Z,5.13
2019-01-02T12:07:53.632Z,5.12
2019-01-02T12:08:53.573Z,5.09
2019-01-02T12:09:53.403Z,5.07
2019-01-02T12:10:53.425Z,5.07
2019-01-02T12:11:53.395Z,5.11
2019-01-02T12:12:53.383Z,5.09
2019-01-02T12:13:53.695Z,5.09
2019-01-02T12:14:53.566Z,5.09
2019-01-02T12:15:53.673Z,5.09
2019-01-02T12:16:53.525Z,5.08
2019-01-02T12:17:53.725Z,5.07
2019-01-02T12:18:54.224Z,5.06
2019-01-02T12:19:53.718Z,5.08
2019-01-02T12:20:54.517Z,5.07
2019-01-02T12:21:53.473Z,5.08
2019-01-02T12:22:53.459Z,5.1
2019-01-02T12:23:53.634Z,5.14
2019-01-02T12:24:53.920Z,5.14
2019-01-02T12:25:54.102Z,5.2
2019-01-02T12:26:53.856Z,5.23
2019-01-02T12:27:53.637Z,5.24
2019-01-02T12:28:53.836Z,5.28
2019-01-02T12:29:53.767Z,5.3
2019-01-02T12:30:53.668Z,5.33
2019-01-02T12:31:53.457Z,5.33
2019-01-02T12:32:53.539Z,5.34
2019-01-02T12:33:53.801Z,5.4
2019-01-02T12:34:53.525Z,5.44
2019-01-02T12:35:53.974Z,5.51
2019-01-02T12:36:53.780Z,5.52
2019-01-02T12:37:53.855Z,5.56
2019-01-02T12:38:53.433Z,5.6
2019-01-02T12:39:53.497Z,5.64
2019-01-02T12:40:53.565Z,5.7
2019-01-02T12:41:53.626Z,5.71
2019-01-02T12:42:53.750Z,5.73
2019-01-02T12:43:53.524Z,5.77
2019-01-02T12:44:53.630Z,5.75
2019-01-02T12:45:53.992Z,5.7
2019-01-02T12:46:54.207Z,5.66
2019-01-02T12:47:53.674Z,5.71
2019-01-02T12:48:53.998Z,5.72
2019-01-02T12:49:53.375Z,5.73
2019-01-02T12:50:53.351Z,5.74
2019-01-02T12:51:53.832Z,5.73
2019-01-02T12:52:53.509Z,5.72
2019-01-02T12:53:53.421Z,5.74
2019-01-02T12:54:53.756Z,5.76
2019-01-02T12:55:53.444Z,5.78
2019-01-02T12:56:53.426Z,5.78
2019-01-02T12:57:53.367Z,5.78
2019-01-02T12:58:53.888Z,5.82
2019-01-02T12:59:53.651Z,5.78
2019-01-02T13:00:53.438Z,5.75
2019-01-02T13:01:53.346Z,5.76
2019-01-02T13:02:53.465Z,5.76
2019-01-02T13:03:53.370Z,5.76
2019-01-02T13:04:53.572Z,5.75
2019-01-02T13:05:53.457Z,5.68
2019-01-02T13:06:53.753Z,5.62
2019-01-02T13:07:53.915Z,5.61
2019-01-02T13:08:53.773Z,5.58
2019-01-02T13:09:53.348Z,5.57
2019-01-02T13:10:53.576Z,5.59
2019-01-02T13:11:53.681Z,5.56
2019-01-02T13:12:56.842Z,5.61
2019-01-02T13:13:53.846Z,5.63
2019-01-02T13:14:54.578Z,5.59
2019-01-02T13:15:54.321Z,5.58
2019-01-02T13:16:53.320Z,5.59
2019-01-02T13:17:53.535Z,5.59
2019-01-02T13:18:53.302Z,5.57
2019-01-02T13:19:53.102Z,5.54
2019-01-02T13:20:53.312Z,5.56
2019-01-02T13:21:53.327Z,5.53